Hier das METAR für die 16 wichtigsten Deutschen Flughäfen.
(dauert ein wenig.... ich muss laden.....)

ODER
METAR nach ICAO Code suchen

Berlin - Schönefeld

EDDB

METAR
EDDB 111320Z 29010KT 260V320 CAVOK 19/06 Q1022 NOSIG
EDDBMETAR lang
Berlin-Schoenefeld, Germany (EDDB) 52-23N 013-31E 50M
Jul 11, 2020 - 09:20 AM EDT / 2020.07.11 1320 UTC
Wind: from the WNW (290 degrees) at 12 MPH (10 KT) (direction variable):0
Visibility: greater than 7 mile(s):0
Temperature: 66 F (19 C)
Dew Point: 42 F (6 C)
Relative Humidity: 42%
Pressure (altimeter): 30.18 in. Hg (1022 hPa)
ob: EDDB 111320Z 29010KT 260V320 CAVOK 19/06 Q1022 NOSIG
cycle: 13

Dresden

EDDC

METAR
EDDC 111320Z 32008KT 250V010 CAVOK 19/06 Q1023 NOSIG
EDDCMETAR lang
Dresden-Klotzsche, Germany (EDDC) 51-08N 013-45E 232M
Jul 11, 2020 - 09:20 AM EDT / 2020.07.11 1320 UTC
Wind: from the NW (320 degrees) at 9 MPH (8 KT) (direction variable):0
Visibility: greater than 7 mile(s):0
Temperature: 66 F (19 C)
Dew Point: 42 F (6 C)
Relative Humidity: 42%
Pressure (altimeter): 30.21 in. Hg (1023 hPa)
ob: EDDC 111320Z 32008KT 250V010 CAVOK 19/06 Q1023 NOSIG
cycle: 13

Erfurt

EDDE

METAR
EDDE 111320Z 24006KT 190V360 CAVOK 19/06 Q1023 NOSIG
EDDEMETAR lang
Erfurt-Bindersleben, Germany (EDDE) 50-59N 010-58E 322M
Jul 11, 2020 - 09:20 AM EDT / 2020.07.11 1320 UTC
Wind: from the WSW (240 degrees) at 7 MPH (6 KT) (direction variable):0
Visibility: greater than 7 mile(s):0
Temperature: 66 F (19 C)
Dew Point: 42 F (6 C)
Relative Humidity: 42%
Pressure (altimeter): 30.21 in. Hg (1023 hPa)
ob: EDDE 111320Z 24006KT 190V360 CAVOK 19/06 Q1023 NOSIG
cycle: 13

Frankfurt a. Main

EDDF

METAR
EDDF 111320Z 36006KT 300V040 CAVOK 22/05 Q1023 NOSIG
EDDFMETAR lang
Frankfurt / M-Flughafen, Germany (EDDF) 50-03N 008-36E 113M
Jul 11, 2020 - 09:20 AM EDT / 2020.07.11 1320 UTC
Wind: from the N (360 degrees) at 7 MPH (6 KT) (direction variable):0
Visibility: greater than 7 mile(s):0
Temperature: 71 F (22 C)
Dew Point: 41 F (5 C)
Relative Humidity: 32%
Pressure (altimeter): 30.21 in. Hg (1023 hPa)
ob: EDDF 111320Z 36006KT 300V040 CAVOK 22/05 Q1023 NOSIG
cycle: 13

Münster Osnabrück

EDDG

METAR
EDDG 111320Z 25006KT 200V310 9999 SCT048 20/08 Q1024 NOSIG
EDDGMETAR lang
Muenster / Osnabrueck, Germany (EDDG) 52-08N 007-42E 53M
Jul 11, 2020 - 09:20 AM EDT / 2020.07.11 1320 UTC
Wind: from the WSW (250 degrees) at 7 MPH (6 KT) (direction variable):0
Visibility: greater than 7 mile(s):0
Sky conditions: partly cloudy
Temperature: 68 F (20 C)
Dew Point: 46 F (8 C)
Relative Humidity: 45%
Pressure (altimeter): 30.24 in. Hg (1024 hPa)
ob: EDDG 111320Z 25006KT 200V310 9999 SCT048 20/08 Q1024 NOSIG
cycle: 13

Hamburg

EDDH

METAR
EDDH 111320Z 25011KT 220V280 9999 VCSH SCT035CB 17/10 Q1023 NOSIG
EDDHMETAR lang
Hamburg-Fuhlsbuettel, Germany (EDDH) 53-38N 010-00E 15M
Jul 11, 2020 - 09:20 AM EDT / 2020.07.11 1320 UTC
Wind: from the WSW (250 degrees) at 13 MPH (11 KT) (direction variable):0
Visibility: greater than 7 mile(s):0
Sky conditions: partly cloudy
Weather: showers in the vicinity; Cumulonimbus clouds observed
Temperature: 62 F (17 C)
Dew Point: 50 F (10 C)
Relative Humidity: 63%
Pressure (altimeter): 30.21 in. Hg (1023 hPa)
ob: EDDH 111320Z 25011KT 220V280 9999 VCSH SCT035CB 17/10 Q1023 NOSIG
cycle: 13

Köln - Bonn

EDDK

METAR
EDDK 111320Z 30006KT CAVOK 19/07 Q1025 NOSIG
EDDKMETAR lang
Koeln / Bonn, Germany (EDDK) 50-52N 007-10E 100M
Jul 11, 2020 - 09:20 AM EDT / 2020.07.11 1320 UTC
Wind: from the WNW (300 degrees) at 7 MPH (6 KT):0
Visibility: greater than 7 mile(s):0
Temperature: 66 F (19 C)
Dew Point: 44 F (7 C)
Relative Humidity: 45%
Pressure (altimeter): 30.27 in. Hg (1025 hPa)
ob: EDDK 111320Z 30006KT CAVOK 19/07 Q1025 NOSIG
cycle: 13

Düsseldorf

EDDL

METAR
EDDL 111320Z 32005KT 270V350 CAVOK 21/07 Q1024 NOSIG
EDDLMETAR lang
Duesseldorf, Germany (EDDL) 51-18N 006-46E 41M
Jul 11, 2020 - 09:20 AM EDT / 2020.07.11 1320 UTC
Wind: from the NW (320 degrees) at 6 MPH (5 KT) (direction variable):0
Visibility: greater than 7 mile(s):0
Temperature: 69 F (21 C)
Dew Point: 44 F (7 C)
Relative Humidity: 40%
Pressure (altimeter): 30.24 in. Hg (1024 hPa)
ob: EDDL 111320Z 32005KT 270V350 CAVOK 21/07 Q1024 NOSIG
cycle: 13

München

EDDM

METAR
EDDM 111320Z 09003KT 020V160 9999 SCT021 17/13 Q1023 NOSIG
EDDMMETAR lang
Munchen, Germany (EDDM) 48-21N 011-47E
Jul 11, 2020 - 09:20 AM EDT / 2020.07.11 1320 UTC
Wind: from the E (090 degrees) at 3 MPH (3 KT) (direction variable):0
Visibility: greater than 7 mile(s):0
Sky conditions: partly cloudy
Temperature: 62 F (17 C)
Dew Point: 55 F (13 C)
Relative Humidity: 77%
Pressure (altimeter): 30.21 in. Hg (1023 hPa)
ob: EDDM 111320Z 09003KT 020V160 9999 SCT021 17/13 Q1023 NOSIG
cycle: 13

Nürnberg

EDDN

METAR
EDDN 111320Z 01006KT 280V050 CAVOK 21/08 Q1022 NOSIG
EDDNMETAR lang
Nuernberg, Germany (EDDN) 49-30N 011-03E 318M
Jul 11, 2020 - 09:20 AM EDT / 2020.07.11 1320 UTC
Wind: from the N (010 degrees) at 7 MPH (6 KT) (direction variable):0
Visibility: greater than 7 mile(s):0
Temperature: 69 F (21 C)
Dew Point: 46 F (8 C)
Relative Humidity: 43%
Pressure (altimeter): 30.18 in. Hg (1022 hPa)
ob: EDDN 111320Z 01006KT 280V050 CAVOK 21/08 Q1022 NOSIG
cycle: 13

Leipzig - Halle

EDDP

METAR
EDDP 111320Z 33009KT 290V010 CAVOK 19/06 Q1023 NOSIG
EDDPMETAR lang
Leipzig-Schkeuditz, Germany (EDDP) 51-25N 012-14E 149M
Jul 11, 2020 - 09:20 AM EDT / 2020.07.11 1320 UTC
Wind: from the NNW (330 degrees) at 10 MPH (9 KT) (direction variable):0
Visibility: greater than 7 mile(s):0
Temperature: 66 F (19 C)
Dew Point: 42 F (6 C)
Relative Humidity: 42%
Pressure (altimeter): 30.21 in. Hg (1023 hPa)
ob: EDDP 111320Z 33009KT 290V010 CAVOK 19/06 Q1023 NOSIG
cycle: 13

Saarbrücken

EDDR

METAR
EDDR 111320Z VRB06KT CAVOK 22/06 Q1024 NOSIG
EDDRMETAR lang
Saarbruecken / Ensheim, Germany (EDDR) 49-13N 007-07E 320M
Jul 11, 2020 - 09:20 AM EDT / 2020.07.11 1320 UTC
Wind: Variable at 7 MPH (6 KT):0
Visibility: greater than 7 mile(s):0
Temperature: 71 F (22 C)
Dew Point: 42 F (6 C)
Relative Humidity: 35%
Pressure (altimeter): 30.24 in. Hg (1024 hPa)
ob: EDDR 111320Z VRB06KT CAVOK 22/06 Q1024 NOSIG
cycle: 13

Stuttgart

EDDS

METAR
EDDS 111320Z AUTO 29007KT 240V330 //// R25/P2000N // ///////// 21/06 Q1023 NOSIG
EDDSMETAR lang
Stuttgart-Echterdingen, Germany (EDDS) 48-41N 009-13E 391M
Jul 11, 2020 - 09:20 AM EDT / 2020.07.11 1320 UTC
Wind: from the WNW (290 degrees) at 8 MPH (7 KT) (direction variable):0
Temperature: 69 F (21 C)
Dew Point: 42 F (6 C)
Relative Humidity: 37%
Pressure (altimeter): 30.21 in. Hg (1023 hPa)
ob: EDDS 111320Z AUTO 29007KT 240V330 //// R25/P2000N // ///////// 21/06 Q1023 NOSIG
cycle: 13

Berlin - Tegel

EDDT

METAR
EDDT 111320Z 32008KT 250V360 CAVOK 19/07 Q1022 NOSIG
EDDTMETAR lang
Berlin-Tegel, Germany (EDDT) 52-34N 013-19E 37M
Jul 11, 2020 - 09:20 AM EDT / 2020.07.11 1320 UTC
Wind: from the NW (320 degrees) at 9 MPH (8 KT) (direction variable):0
Visibility: greater than 7 mile(s):0
Temperature: 66 F (19 C)
Dew Point: 44 F (7 C)
Relative Humidity: 45%
Pressure (altimeter): 30.18 in. Hg (1022 hPa)
ob: EDDT 111320Z 32008KT 250V360 CAVOK 19/07 Q1022 NOSIG
cycle: 13

Hannover

EDDV

METAR
EDDV 111320Z 33005KT 280V360 9999 VCSH SCT032TCU 19/11 Q1023 NOSIG
EDDVMETAR lang
Hannover, Germany (EDDV) 52-28N 009-41E 59M
Jul 11, 2020 - 09:20 AM EDT / 2020.07.11 1320 UTC
Wind: from the NNW (330 degrees) at 6 MPH (5 KT) (direction variable):0
Visibility: greater than 7 mile(s):0
Sky conditions: partly cloudy
Weather: showers in the vicinity; Towering cumulus clouds observed
Temperature: 66 F (19 C)
Dew Point: 51 F (11 C)
Relative Humidity: 59%
Pressure (altimeter): 30.21 in. Hg (1023 hPa)
ob: EDDV 111320Z 33005KT 280V360 9999 VCSH SCT032TCU 19/11 Q1023 NOSIG
cycle: 13

Bremen

EDDW

METAR
EDDW 111320Z 31007KT 270V360 9999 FEW020CB FEW030TCU 17/11 Q1024 TEMPO 32015G25KT SHRA
EDDWMETAR lang
Bremen, Germany (EDDW) 53-03N 008-48E 5M
Jul 11, 2020 - 09:20 AM EDT / 2020.07.11 1320 UTC
Wind: from the NW (310 degrees) at 8 MPH (7 KT) (direction variable):0
Visibility: greater than 7 mile(s):0
Sky conditions: mostly clear
Weather: Cumulonimbus clouds, towering cumulus clouds observed
Temperature: 62 F (17 C)
Dew Point: 51 F (11 C)
Relative Humidity: 67%
Pressure (altimeter): 30.24 in. Hg (1024 hPa)
ob: EDDW 111320Z 31007KT 270V360 9999 FEW020CB FEW030TCU 17/11 Q1024 TEMPO 32015G25KT SHRA
cycle: 13